Terminal Aerodrome Forecast
Issued by NWS Blacksburg, VA

Home | Current Version | Previous Version | Text Only | Print | Product List | Glossary On
Versions: 1 2 3 4 5 6 7 8 9 10 11 12 13 14 15 16 17
000
FTUS41 KRNK 271744
TAFLYH
TAF
KLYH 271744Z 2718/2818 20011G21KT P6SM VCTS BKN050CB
     FM280000 19007KT P6SM VCSH OVC040
     FM280300 00000KT P6SM SCT040
     FM280900 00000KT 4SM BR SCT250
     FM281200 19004KT P6SM FEW250=

USA.gov is the U.S. government's official web portal to all federal, state and local government web resources and services.